Time,TemperatureF,DewpointF,PressureIn,WindDirection,WindDirectionDegrees,WindSpeedMPH,WindSpeedGustMPH,Humidity,HourlyPrecipIn,Conditions,Clouds,dailyrainin,SoftwareType,DateUTC
2014-01-11 00:01:00,46.6,46.3,29.69,SSE,158,4.7,4.7,99,0.00,BKN,,0.00,WeatherDisplay:10.37,2014-01-11 05:01:00,
2014-01-11 00:02:00,46.6,46.3,29.69,SE,135,5.8,5.8,99,0.00,BKN,,0.00,WeatherDisplay:10.37,2014-01-11 05:02:00,
2014-01-11 00:03:00,46.6,46.3,29.69,SE,135,5.8,5.8,99,0.00,BKN,,0.00,WeatherDisplay:10.37,2014-01-11 05:03:00,
2014-01-11 00:04:00,46.6,46.3,29.69,SE,135,5.3,5.3,99,0.00,BKN,,0.00,WeatherDisplay:10.37,2014-01-11 05:04:00,
2014-01-11 00:06:00,46.6,46.3,29.69,ESE,112,5.8,5.8,99,0.00,BKN,,0.00,WeatherDisplay:10.37,2014-01-11 05:06:00,
2014-01-11 00:11:00,46.6,46.3,29.69,ESE,112,4.2,4.2,99,0.00,BKN,,0.00,WeatherDisplay:10.37,2014-01-11 05:11:00,
2014-01-11 00:16:00,46.6,46.3,29.68,SSE,158,4.6,4.6,99,0.00,BKN,,0.00,WeatherDisplay:10.37,2014-01-11 05:16:00,
2014-01-11 00:21:00,46.6,46.3,29.68,ESE,112,4.6,4.6,99,0.00,BKN,,0.00,WeatherDisplay:10.37,2014-01-11 05:21:00,
2014-01-11 00:26:00,46.6,46.3,29.67,ESE,112,3.5,3.5,99,0.00,BKN,,0.00,WeatherDisplay:10.37,2014-01-11 05:26:00,
2014-01-11 00:31:00,46.6,46.3,29.67,SE,135,4.6,4.6,99,0.00,BKN,,0.00,WeatherDisplay:10.37,2014-01-11 05:31:00,
2014-01-11 00:36:00,46.6,46.3,29.66,ESE,112,3.5,3.5,99,0.00,BKN,,0.00,WeatherDisplay:10.37,2014-01-11 05:36:00,
2014-01-11 00:41:00,46.6,46.3,29.66,ESE,112,4.6,4.6,99,0.00,BKN,,0.00,WeatherDisplay:10.37,2014-01-11 05:41:00,
2014-01-11 00:46:00,46.6,46.3,29.66,ENE,68,4.7,4.7,99,0.00,BKN,,0.00,WeatherDisplay:10.37,2014-01-11 05:46:00,
2014-01-11 00:51:00,46.6,46.3,29.66,ESE,112,4.6,4.6,99,0.00,BKN,,0.00,WeatherDisplay:10.37,2014-01-11 05:51:00,
2014-01-11 00:56:00,46.6,46.3,29.66,SSE,158,3.2,3.2,99,0.00,BKN,,0.00,WeatherDisplay:10.37,2014-01-11 05:56:00,
2014-01-11 01:01:00,46.6,46.3,29.65,ESE,112,4.6,4.6,99,0.00,SCT,,0.00,WeatherDisplay:10.37,2014-01-11 06:01:00,
2014-01-11 01:06:00,46.6,46.3,29.65,ESE,112,3.5,3.5,99,0.00,SCT,,0.00,WeatherDisplay:10.37,2014-01-11 06:06:00,
2014-01-11 01:11:00,46.6,46.3,29.65,SE,135,3.5,3.5,99,0.00,SCT,,0.00,WeatherDisplay:10.37,2014-01-11 06:11:00,
2014-01-11 01:16:00,46.6,46.3,29.64,ESE,112,3.7,3.7,99,0.00,SCT,,0.00,WeatherDisplay:10.37,2014-01-11 06:16:00,
2014-01-11 01:21:00,46.6,46.3,29.64,SSE,158,3.5,3.5,99,0.00,SCT,,0.00,WeatherDisplay:10.37,2014-01-11 06:21:00,
2014-01-11 01:26:00,46.6,46.3,29.63,SSE,158,4.6,4.6,99,0.00,SCT,,0.00,WeatherDisplay:10.37,2014-01-11 06:26:00,
2014-01-11 01:31:00,46.6,46.3,29.63,ESE,112,3.7,3.7,99,0.00,SCT,,0.00,WeatherDisplay:10.37,2014-01-11 06:31:00,
2014-01-11 01:36:00,46.6,46.3,29.62,ESE,112,3.5,3.5,99,0.00,SCT,,0.00,WeatherDisplay:10.37,2014-01-11 06:36:00,
2014-01-11 01:41:00,46.6,46.3,29.62,South,180,2.3,2.3,99,0.00,SCT,,0.00,WeatherDisplay:10.37,2014-01-11 06:41:00,
2014-01-11 01:46:00,46.6,46.3,29.62,SW,225,3.5,3.5,99,0.00,SCT,,0.00,WeatherDisplay:10.37,2014-01-11 06:46:00,
2014-01-11 01:51:00,46.6,46.3,29.63,ESE,112,4.7,4.7,99,0.00,SCT,,0.00,WeatherDisplay:10.37,2014-01-11 06:51:00,
2014-01-11 01:56:00,46.6,46.3,29.63,South,180,3.2,3.2,99,0.00,SCT,,0.00,WeatherDisplay:10.37,2014-01-11 06:56:00,
2014-01-11 02:01:00,46.6,46.3,29.62,ESE,112,0.0,0.0,99,0.00,SCT,,0.00,WeatherDisplay:10.37,2014-01-11 07:01:00,
2014-01-11 02:06:00,46.6,46.3,29.62,SE,135,1.1,1.1,99,0.00,SCT,,0.00,WeatherDisplay:10.37,2014-01-11 07:06:00,
2014-01-11 02:11:00,46.6,46.3,29.62,ESE,112,3.7,3.7,99,0.00,SCT,,0.00,WeatherDisplay:10.37,2014-01-11 07:11:00,
2014-01-11 02:16:00,46.6,46.3,29.62,East,90,3.5,3.5,99,0.00,SCT,,0.00,WeatherDisplay:10.37,2014-01-11 07:16:00,
2014-01-11 02:21:00,46.6,46.3,29.62,ESE,112,3.5,3.5,99,0.00,SCT,,0.00,WeatherDisplay:10.37,2014-01-11 07:21:00,
2014-01-11 02:26:00,46.6,46.3,29.61,East,90,3.5,3.5,99,0.00,SCT,,0.00,WeatherDisplay:10.37,2014-01-11 07:26:00,
2014-01-11 02:31:00,46.6,46.3,29.61,ESE,112,4.6,4.6,99,0.00,BKN,,0.00,WeatherDisplay:10.37,2014-01-11 07:31:00,
2014-01-11 02:36:00,46.6,46.3,29.61,SE,135,2.3,2.3,99,0.00,BKN,,0.00,WeatherDisplay:10.37,2014-01-11 07:36:00,
2014-01-11 02:41:00,46.6,46.3,29.60,East,90,2.3,2.3,99,0.00,BKN,,0.00,WeatherDisplay:10.37,2014-01-11 07:41:00,
2014-01-11 02:46:00,46.6,46.3,29.60,ESE,112,3.2,3.2,99,0.00,BKN,,0.00,WeatherDisplay:10.37,2014-01-11 07:46:00,
2014-01-11 02:51:00,46.6,46.3,29.59,ESE,112,3.5,3.5,99,0.00,BKN,,0.00,WeatherDisplay:10.37,2014-01-11 07:51:00,
2014-01-11 02:56:00,46.6,46.3,29.59,ESE,112,3.2,3.2,99,0.00,BKN,,0.00,WeatherDisplay:10.37,2014-01-11 07:56:00,
2014-01-11 03:01:00,46.6,46.3,29.59,ESE,112,3.7,3.7,99,0.00,CLR,,0.00,WeatherDisplay:10.37,2014-01-11 08:01:00,
2014-01-11 03:06:00,46.6,46.3,29.59,East,90,1.1,1.1,99,0.00,CLR,,0.00,WeatherDisplay:10.37,2014-01-11 08:06:00,
2014-01-11 03:11:00,46.6,46.3,29.59,ESE,112,3.5,3.5,99,0.00,CLR,,0.00,WeatherDisplay:10.37,2014-01-11 08:11:00,
2014-01-11 03:16:00,46.6,46.3,29.58,ESE,112,2.3,2.3,99,0.00,CLR,,0.00,WeatherDisplay:10.37,2014-01-11 08:16:00,
2014-01-11 03:21:00,46.6,46.3,29.58,SE,135,3.5,3.5,99,0.00,CLR,,0.00,WeatherDisplay:10.37,2014-01-11 08:21:00,
2014-01-11 03:26:00,46.6,46.3,29.58,SSE,158,3.5,3.5,99,0.00,CLR,,0.00,WeatherDisplay:10.37,2014-01-11 08:26:00,
2014-01-11 03:31:00,46.6,46.3,29.58,ESE,112,3.5,3.5,99,0.00,CLR,,0.00,WeatherDisplay:10.37,2014-01-11 08:31:00,
2014-01-11 03:36:00,46.6,46.3,29.56,ESE,112,3.7,3.9,99,0.00,CLR,,0.00,WeatherDisplay:10.37,2014-01-11 08:36:00,
2014-01-11 03:41:00,46.6,46.3,29.56,East,90,2.7,2.7,99,0.00,CLR,,0.00,WeatherDisplay:10.37,2014-01-11 08:41:00,
2014-01-11 03:46:00,46.6,46.3,29.56,ESE,112,4.6,4.6,99,0.00,CLR,,0.00,WeatherDisplay:10.37,2014-01-11 08:46:00,
2014-01-11 03:51:00,46.6,46.3,29.55,SE,135,4.6,4.6,99,0.00,CLR,,0.00,WeatherDisplay:10.37,2014-01-11 08:51:00,
2014-01-11 03:56:00,46.6,46.3,29.55,SSE,158,4.6,4.6,99,0.00,CLR,,0.00,WeatherDisplay:10.37,2014-01-11 08:56:00,
2014-01-11 04:01:00,46.6,46.3,29.54,East,90,4.7,4.7,99,0.00,CLR,,0.00,WeatherDisplay:10.37,2014-01-11 09:01:00,
2014-01-11 04:06:00,46.6,46.3,29.54,SSW,202,2.3,2.3,99,0.00,CLR,,0.00,WeatherDisplay:10.37,2014-01-11 09:06:00,
2014-01-11 04:11:00,46.6,46.3,29.54,SSE,158,4.6,4.6,99,0.00,CLR,,0.00,WeatherDisplay:10.37,2014-01-11 09:11:00,
2014-01-11 04:16:00,46.6,46.3,29.53,ESE,112,3.5,3.5,99,0.00,CLR,,0.00,WeatherDisplay:10.37,2014-01-11 09:16:00,
2014-01-11 04:21:00,46.6,46.3,29.53,SE,135,4.6,4.6,99,0.00,CLR,,0.00,WeatherDisplay:10.37,2014-01-11 09:21:00,
2014-01-11 04:26:00,46.6,46.3,29.52,ESE,112,4.6,4.6,99,0.00,CLR,,0.00,WeatherDisplay:10.37,2014-01-11 09:26:00,
2014-01-11 04:31:00,46.6,46.3,29.52,SE,135,4.6,4.6,99,0.00,OVC,,0.00,WeatherDisplay:10.37,2014-01-11 09:31:00,
2014-01-11 04:36:00,46.6,46.3,29.52,SE,135,4.6,4.6,99,0.00,OVC,,0.00,WeatherDisplay:10.37,2014-01-11 09:36:00,
2014-01-11 04:41:00,46.6,46.3,29.51,ESE,112,4.6,4.6,99,0.00,OVC,,0.00,WeatherDisplay:10.37,2014-01-11 09:41:00,
2014-01-11 04:46:00,46.6,46.3,29.51,SSE,158,5.8,5.8,99,0.00,OVC,,0.00,WeatherDisplay:10.37,2014-01-11 09:46:00,
2014-01-11 04:51:00,46.6,46.3,29.49,SE,135,6.8,6.8,99,0.00,OVC,,0.00,WeatherDisplay:10.37,2014-01-11 09:51:00,
2014-01-11 04:56:00,46.6,46.3,29.49,WSW,248,5.8,5.8,99,0.00,OVC,,0.00,WeatherDisplay:10.37,2014-01-11 09:56:00,
2014-01-11 05:01:00,46.6,46.3,29.49,ESE,112,5.8,5.8,99,0.00,OVC,,0.00,WeatherDisplay:10.37,2014-01-11 10:01:00,
2014-01-11 05:06:00,46.6,46.3,29.49,East,90,4.7,4.7,99,0.00,OVC,,0.00,WeatherDisplay:10.37,2014-01-11 10:06:00,
2014-01-11 05:11:00,46.6,46.3,29.49,South,180,5.8,5.8,99,0.00,OVC,,0.00,WeatherDisplay:10.37,2014-01-11 10:11:00,
2014-01-11 05:16:00,46.6,46.3,29.48,ESE,112,3.7,3.7,99,0.00,OVC,,0.00,WeatherDisplay:10.37,2014-01-11 10:16:00,
2014-01-11 05:21:00,46.6,46.3,29.48,SE,135,5.8,5.8,99,0.00,OVC,,0.00,WeatherDisplay:10.37,2014-01-11 10:21:00,
2014-01-11 05:26:00,46.6,46.3,29.46,SE,135,5.8,5.8,99,0.00,OVC,,0.00,WeatherDisplay:10.37,2014-01-11 10:26:00,
2014-01-11 05:31:00,46.6,46.3,29.46,East,90,4.6,4.6,99,0.00,FEW,,0.00,WeatherDisplay:10.37,2014-01-11 10:31:00,
2014-01-11 05:36:00,46.6,46.3,29.45,South,180,4.6,4.6,99,0.00,FEW,,0.00,WeatherDisplay:10.37,2014-01-11 10:36:00,
2014-01-11 05:41:00,46.6,46.3,29.45,ESE,112,5.8,5.8,99,0.00,FEW,,0.00,WeatherDisplay:10.37,2014-01-11 10:41:00,
2014-01-11 05:46:00,46.6,46.3,29.45,ESE,112,4.6,4.6,99,0.00,FEW,,0.00,WeatherDisplay:10.37,2014-01-11 10:46:00,
2014-01-11 05:51:00,46.6,46.3,29.45,SE,135,5.3,5.3,99,0.00,FEW,,0.00,WeatherDisplay:10.37,2014-01-11 10:51:00,
2014-01-11 05:56:00,46.6,46.3,29.45,ESE,112,4.6,4.6,99,0.00,FEW,,0.00,WeatherDisplay:10.37,2014-01-11 10:56:00,
2014-01-11 06:01:00,46.6,46.3,29.44,SE,135,5.8,5.8,99,0.00,FEW,,0.00,WeatherDisplay:10.37,2014-01-11 11:01:00,
2014-01-11 06:07:00,46.6,46.3,29.44,East,90,6.9,6.9,99,0.00,FEW,,0.00,WeatherDisplay:10.37,2014-01-11 11:07:00,
2014-01-11 06:12:00,46.6,46.3,29.44,ESE,112,4.6,4.6,99,0.00,FEW,,0.00,WeatherDisplay:10.37,2014-01-11 11:12:00,
2014-01-11 06:17:00,46.6,46.3,29.42,East,90,4.6,4.6,99,0.00,FEW,,0.00,WeatherDisplay:10.37,2014-01-11 11:17:00,
2014-01-11 06:22:00,46.6,46.3,29.42,SSE,158,5.8,5.8,99,0.00,FEW,,0.00,WeatherDisplay:10.37,2014-01-11 11:22:00,
2014-01-11 06:27:00,46.6,46.3,29.42,SE,135,5.8,5.8,99,0.00,FEW,,0.00,WeatherDisplay:10.37,2014-01-11 11:27:00,
2014-01-11 06:32:00,46.6,46.3,29.42,SE,135,4.6,4.6,99,0.00,CLR,,0.00,WeatherDisplay:10.37,2014-01-11 11:32:00,
2014-01-11 06:37:00,46.6,46.3,29.42,ESE,112,6.9,6.9,99,0.00,CLR,,0.00,WeatherDisplay:10.37,2014-01-11 11:37:00,
2014-01-11 06:42:00,46.6,46.3,29.41,SE,135,9.2,9.2,99,0.00,CLR,,0.00,WeatherDisplay:10.37,2014-01-11 11:42:00,
2014-01-11 06:47:00,46.6,46.3,29.41,ESE,112,4.7,4.7,99,0.00,CLR,,0.00,WeatherDisplay:10.37,2014-01-11 11:47:00,
2014-01-11 06:52:00,46.6,46.3,29.41,ESE,112,6.9,6.9,99,0.00,CLR,,0.00,WeatherDisplay:10.37,2014-01-11 11:52:00,
2014-01-11 06:57:00,46.6,46.3,29.41,ESE,112,4.6,4.6,99,0.00,CLR,,0.00,WeatherDisplay:10.37,2014-01-11 11:57:00,
2014-01-11 07:02:00,46.6,46.3,29.39,ESE,112,4.6,4.6,99,0.00,CLR,,0.00,WeatherDisplay:10.37,2014-01-11 12:02:00,
2014-01-11 07:07:00,46.6,46.3,29.39,South,180,4.6,4.6,99,0.00,CLR,,0.00,WeatherDisplay:10.37,2014-01-11 12:07:00,
2014-01-11 07:12:00,46.6,46.3,29.38,SSE,158,5.8,5.8,99,0.00,CLR,,0.00,WeatherDisplay:10.37,2014-01-11 12:12:00,
2014-01-11 07:17:00,46.6,46.3,29.38,East,90,4.6,4.6,99,0.00,CLR,,0.00,WeatherDisplay:10.37,2014-01-11 12:17:00,
2014-01-11 07:22:00,46.6,46.3,29.38,ESE,112,6.9,6.9,99,0.00,CLR,,0.00,WeatherDisplay:10.37,2014-01-11 12:22:00,
2014-01-11 07:27:00,46.6,46.3,29.36,SE,135,4.6,4.6,99,0.00,CLR,,0.00,WeatherDisplay:10.37,2014-01-11 12:27:00,
2014-01-11 07:32:00,46.6,46.3,29.36,ESE,112,3.7,3.7,99,0.00,SCT,,0.00,WeatherDisplay:10.37,2014-01-11 12:32:00,
2014-01-11 07:37:00,46.6,46.3,29.36,ESE,112,4.6,4.6,99,0.00,SCT,,0.00,WeatherDisplay:10.37,2014-01-11 12:37:00,
2014-01-11 07:42:00,46.6,46.3,29.36,ESE,112,3.5,3.5,99,0.00,SCT,,0.00,WeatherDisplay:10.37,2014-01-11 12:42:00,
2014-01-11 07:47:00,46.6,46.3,29.36,ESE,112,4.6,4.6,99,0.00,SCT,,0.00,WeatherDisplay:10.37,2014-01-11 12:47:00,
2014-01-11 07:52:00,46.6,46.3,29.35,ESE,112,4.6,4.6,99,0.00,SCT,,0.00,WeatherDisplay:10.37,2014-01-11 12:52:00,
2014-01-11 07:57:00,46.6,46.3,29.35,ESE,112,4.2,4.2,99,0.00,SCT,,0.00,WeatherDisplay:10.37,2014-01-11 12:57:00,
2014-01-11 08:02:00,46.6,46.3,29.34,SE,135,3.5,3.5,99,0.00,OVC,,0.00,WeatherDisplay:10.37,2014-01-11 13:02:00,
2014-01-11 08:07:00,46.6,46.3,29.34,WSW,248,24.2,24.2,99,0.00,OVC,,0.00,WeatherDisplay:10.37,2014-01-11 13:07:00,
2014-01-11 08:12:00,46.6,46.3,29.34,SW,225,19.1,19.1,99,0.00,OVC,,0.00,WeatherDisplay:10.37,2014-01-11 13:12:00,
2014-01-11 08:17:00,46.6,46.3,29.39,WSW,248,17.3,17.3,99,0.04,RA,,0.05,WeatherDisplay:10.37,2014-01-11 13:17:00,
2014-01-11 08:22:00,46.6,46.3,29.39,West,270,19.6,19.6,99,0.06,RA,,0.07,WeatherDisplay:10.37,2014-01-11 13:22:00,
2014-01-11 08:27:00,46.6,46.3,29.40,WSW,248,20.7,20.7,99,0.08,RA,,0.08,WeatherDisplay:10.37,2014-01-11 13:27:00,
2014-01-11 08:32:00,46.6,46.3,29.40,West,270,14.5,14.5,99,0.09,RA,,0.09,WeatherDisplay:10.37,2014-01-11 13:32:00,
2014-01-11 08:37:00,46.6,46.3,29.41,West,270,13.0,13.0,99,0.10,RA,,0.10,WeatherDisplay:10.37,2014-01-11 13:37:00,
2014-01-11 08:42:00,46.6,46.3,29.41,West,270,12.7,12.7,99,0.10,RA,,0.10,WeatherDisplay:10.37,2014-01-11 13:42:00,
2014-01-11 08:47:00,46.6,46.3,29.41,WSW,248,9.2,9.2,99,0.10,OVC,,0.10,WeatherDisplay:10.37,2014-01-11 13:47:00,
2014-01-11 08:52:00,46.6,46.3,29.42,West,270,9.4,9.4,99,0.11,RA,,0.11,WeatherDisplay:10.37,2014-01-11 13:52:00,
2014-01-11 08:57:00,46.6,46.3,29.42,SW,225,8.8,8.8,99,0.12,RA,,0.12,WeatherDisplay:10.37,2014-01-11 13:57:00,
2014-01-11 09:02:00,46.6,46.3,29.42,West,270,8.1,8.1,99,0.14,RA,,0.15,WeatherDisplay:10.37,2014-01-11 14:02:00,
2014-01-11 09:07:00,46.6,46.3,29.42,WSW,248,10.4,10.4,99,0.16,RA,,0.17,WeatherDisplay:10.37,2014-01-11 14:07:00,
2014-01-11 09:12:00,46.6,46.3,29.42,WSW,248,11.5,11.5,99,0.17,RA,,0.17,WeatherDisplay:10.37,2014-01-11 14:12:00,
2014-01-11 09:17:00,46.6,46.3,29.41,WSW,248,9.2,9.2,99,0.17,RA,,0.17,WeatherDisplay:10.37,2014-01-11 14:17:00,
2014-01-11 09:22:00,46.6,46.3,29.41,WSW,248,5.8,5.9,99,0.12,RA,,0.18,WeatherDisplay:10.37,2014-01-11 14:22:00,
2014-01-11 09:27:00,46.6,46.3,29.41,West,270,5.8,5.8,99,0.13,RA,,0.20,WeatherDisplay:10.37,2014-01-11 14:27:00,
2014-01-11 09:32:00,46.6,46.3,29.41,SW,225,5.8,5.8,99,0.12,-RA,,0.21,WeatherDisplay:10.37,2014-01-11 14:32:00,
2014-01-11 09:37:00,46.6,46.3,29.41,SSW,202,4.6,4.6,99,0.13,-RA,,0.23,WeatherDisplay:10.37,2014-01-11 14:37:00,
2014-01-11 09:42:00,46.6,46.3,29.41,West,270,3.5,3.5,99,0.14,-RA,,0.24,WeatherDisplay:10.37,2014-01-11 14:42:00,
2014-01-11 09:47:00,46.6,46.3,29.41,SW,225,3.2,3.2,99,0.14,-RA,,0.24,WeatherDisplay:10.37,2014-01-11 14:47:00,
2014-01-11 09:52:00,46.6,46.3,29.41,SW,225,4.7,4.7,99,0.15,-RA,,0.26,WeatherDisplay:10.37,2014-01-11 14:52:00,
2014-01-11 09:57:00,46.6,46.3,29.41,SSW,202,3.5,3.5,99,0.15,-RA,,0.27,WeatherDisplay:10.37,2014-01-11 14:57:00,
2014-01-11 10:02:00,46.6,46.3,29.41,SW,225,5.8,5.8,99,0.15,-RA,,0.29,WeatherDisplay:10.37,2014-01-11 15:02:00,
2014-01-11 10:07:00,46.6,46.3,29.41,SW,225,4.2,4.2,99,0.15,-RA,,0.31,WeatherDisplay:10.37,2014-01-11 15:07:00,
2014-01-11 10:12:00,46.6,46.3,29.41,WSW,248,4.7,4.7,99,0.16,-RA,,0.33,WeatherDisplay:10.37,2014-01-11 15:12:00,
2014-01-11 10:17:00,46.6,46.3,29.41,SW,225,3.5,3.5,99,0.18,-RA,,0.35,WeatherDisplay:10.37,2014-01-11 15:17:00,
2014-01-11 10:22:00,46.6,46.3,29.41,SW,225,4.6,4.6,99,0.19,-RA,,0.37,WeatherDisplay:10.37,2014-01-11 15:22:00,
2014-01-11 10:27:00,46.6,46.3,29.40,SW,225,2.3,2.3,99,0.19,-RA,,0.39,WeatherDisplay:10.37,2014-01-11 15:27:00,
2014-01-11 10:32:00,46.6,46.3,29.40,East,90,3.5,3.5,99,0.19,-RA,,0.40,WeatherDisplay:10.37,2014-01-11 15:32:00,
2014-01-11 10:37:00,46.6,46.3,29.39,ESE,112,4.7,4.7,99,0.18,-RA,,0.41,WeatherDisplay:10.37,2014-01-11 15:37:00,
2014-01-11 10:42:00,46.6,46.3,29.39,SSE,158,3.5,3.5,99,0.17,-RA,,0.41,WeatherDisplay:10.37,2014-01-11 15:42:00,
2014-01-11 10:47:00,46.6,46.3,29.39,South,180,5.8,5.8,99,0.18,-RA,,0.42,WeatherDisplay:10.37,2014-01-11 15:47:00,
2014-01-11 10:52:00,46.6,46.3,29.39,SSW,202,2.3,2.3,99,0.16,-RA,,0.42,WeatherDisplay:10.37,2014-01-11 15:52:00,
2014-01-11 10:57:00,46.6,46.3,29.39,SSE,158,3.7,3.7,99,0.16,-RA,,0.43,WeatherDisplay:10.37,2014-01-11 15:57:00,
2014-01-11 11:02:00,46.6,46.3,29.38,SE,135,4.6,4.6,99,0.14,-RA,,0.43,WeatherDisplay:10.37,2014-01-11 16:02:00,
2014-01-11 11:07:00,46.6,46.3,29.38,SE,135,5.8,5.8,99,0.12,-RA,,0.43,WeatherDisplay:10.37,2014-01-11 16:07:00,
2014-01-11 11:12:00,46.6,46.3,29.38,ESE,112,4.6,4.6,99,0.10,-RA,,0.44,WeatherDisplay:10.37,2014-01-11 16:12:00,
2014-01-11 11:17:00,46.6,46.3,29.36,ENE,68,6.3,6.3,99,0.09,-RA,,0.44,WeatherDisplay:10.37,2014-01-11 16:17:00,
2014-01-11 11:22:00,46.6,46.3,29.36,SSE,158,5.8,5.8,99,0.07,-RA,,0.44,WeatherDisplay:10.37,2014-01-11 16:22:00,
2014-01-11 11:27:00,46.6,46.3,29.36,ENE,68,6.9,6.9,99,0.06,-RA,,0.45,WeatherDisplay:10.37,2014-01-11 16:27:00,
2014-01-11 11:32:00,46.6,46.3,29.36,SW,225,7.3,7.3,99,0.05,-RA,,0.45,WeatherDisplay:10.37,2014-01-11 16:32:00,
2014-01-11 11:37:00,46.6,46.3,29.35,ESE,112,3.7,3.7,99,0.04,-RA,,0.45,WeatherDisplay:10.37,2014-01-11 16:37:00,
2014-01-11 11:42:00,46.6,46.3,29.35,SSE,158,5.8,5.8,99,0.05,-RA,,0.46,WeatherDisplay:10.37,2014-01-11 16:42:00,
2014-01-11 11:47:00,46.6,46.3,29.35,ESE,112,3.5,3.5,99,0.04,-RA,,0.46,WeatherDisplay:10.37,2014-01-11 16:47:00,
2014-01-11 11:52:00,46.6,46.3,29.34,ESE,112,5.8,5.8,99,0.04,-RA,,0.46,WeatherDisplay:10.37,2014-01-11 16:52:00,
2014-01-11 11:57:00,46.6,46.3,29.34,SW,225,3.7,3.7,99,0.03,-RA,,0.46,WeatherDisplay:10.37,2014-01-11 16:57:00,
2014-01-11 12:02:00,46.6,46.3,29.32,SSW,202,5.8,5.8,99,0.03,-RA,,0.47,WeatherDisplay:10.37,2014-01-11 17:02:00,
2014-01-11 12:07:00,46.6,46.3,29.32,West,270,8.1,8.1,99,0.04,-RA,,0.47,WeatherDisplay:10.37,2014-01-11 17:07:00,
2014-01-11 12:12:00,46.6,46.3,29.32,South,180,6.9,6.9,99,0.04,-RA,,0.47,WeatherDisplay:10.37,2014-01-11 17:12:00,
2014-01-11 12:17:00,46.6,46.3,29.31,WSW,248,8.3,8.3,99,0.03,-RA,,0.47,WeatherDisplay:10.37,2014-01-11 17:17:00,
2014-01-11 12:22:00,46.6,46.3,29.31,ESE,112,6.9,6.9,99,0.03,-RA,,0.47,WeatherDisplay:10.37,2014-01-11 17:22:00,
2014-01-11 12:27:00,46.6,46.3,29.28,ESE,112,5.8,5.8,99,0.02,-RA,,0.47,WeatherDisplay:10.37,2014-01-11 17:27:00,
2014-01-11 12:32:00,46.6,46.3,29.28,East,90,7.8,7.8,99,0.02,-RA,,0.47,WeatherDisplay:10.37,2014-01-11 17:32:00,
2014-01-11 12:37:00,46.6,46.3,29.24,ESE,112,6.9,6.9,99,0.02,-RA,,0.47,WeatherDisplay:10.37,2014-01-11 17:37:00,
2014-01-11 12:42:00,46.6,46.3,29.24,WSW,248,5.8,5.8,99,0.01,-RA,,0.47,WeatherDisplay:10.37,2014-01-11 17:42:00,
2014-01-11 12:47:00,46.6,46.3,29.24,SE,135,6.9,6.9,99,0.01,-RA,,0.47,WeatherDisplay:10.37,2014-01-11 17:47:00,
2014-01-11 12:52:00,46.6,46.3,29.25,SSW,202,10.4,10.4,99,0.01,-RA,,0.47,WeatherDisplay:10.37,2014-01-11 17:52:00,
2014-01-11 12:57:00,46.6,46.3,29.25,West,270,13.8,13.8,99,0.01,-RA,,0.47,WeatherDisplay:10.37,2014-01-11 17:57:00,
2014-01-11 13:02:00,46.6,46.3,29.23,South,180,9.2,9.2,99,0.01,OVC,,0.47,WeatherDisplay:10.37,2014-01-11 18:02:00,
2014-01-11 13:07:00,46.6,46.3,29.23,SSW,202,11.5,11.5,99,0.00,OVC,,0.47,WeatherDisplay:10.37,2014-01-11 18:07:00,
2014-01-11 13:12:00,46.6,46.3,29.23,West,270,9.2,9.2,99,0.00,OVC,,0.47,WeatherDisplay:10.37,2014-01-11 18:12:00,
2014-01-11 13:17:00,46.6,46.3,29.23,SW,225,15.0,15.0,99,0.00,OVC,,0.47,WeatherDisplay:10.37,2014-01-11 18:17:00,
2014-01-11 13:22:00,46.6,46.3,29.23,West,270,12.7,12.7,99,0.00,OVC,,0.47,WeatherDisplay:10.37,2014-01-11 18:22:00,
2014-01-11 13:27:00,46.6,46.3,29.23,SSW,202,10.4,10.4,99,0.00,OVC,,0.47,WeatherDisplay:10.37,2014-01-11 18:27:00,
2014-01-11 13:32:00,46.6,46.3,29.23,SSW,202,11.5,11.5,99,0.00,OVC,,0.47,WeatherDisplay:10.37,2014-01-11 18:32:00,
2014-01-11 13:37:00,46.6,46.3,29.23,SSW,202,10.4,10.4,99,0.00,OVC,,0.47,WeatherDisplay:10.37,2014-01-11 18:37:00,
2014-01-11 13:42:00,46.6,46.3,29.23,WSW,248,13.0,13.0,99,0.00,OVC,,0.47,WeatherDisplay:10.37,2014-01-11 18:42:00,
2014-01-11 13:47:00,46.6,46.3,29.23,SW,225,16.1,16.1,99,0.00,OVC,,0.47,WeatherDisplay:10.37,2014-01-11 18:47:00,
2014-01-11 13:52:00,46.6,46.3,29.22,West,270,13.0,13.0,99,0.00,OVC,,0.47,WeatherDisplay:10.37,2014-01-11 18:52:00,
2014-01-11 13:57:00,46.6,46.3,29.22,SSW,202,15.0,15.0,99,0.00,OVC,,0.47,WeatherDisplay:10.37,2014-01-11 18:57:00,
2014-01-11 14:02:00,46.6,46.3,29.21,West,270,15.5,15.5,99,0.00,OVC,,0.47,WeatherDisplay:10.37,2014-01-11 19:02:00,
2014-01-11 14:07:00,46.6,46.3,29.21,SW,225,15.0,15.0,99,0.00,OVC,,0.47,WeatherDisplay:10.37,2014-01-11 19:07:00,
2014-01-11 14:12:00,46.6,46.3,29.21,WSW,248,6.9,6.9,99,0.00,OVC,,0.47,WeatherDisplay:10.37,2014-01-11 19:12:00,
2014-01-11 14:17:00,46.6,46.3,29.21,SW,225,8.3,8.3,99,0.00,OVC,,0.47,WeatherDisplay:10.37,2014-01-11 19:17:00,
2014-01-11 14:22:00,46.6,46.3,29.21,SW,225,10.4,10.4,99,0.00,OVC,,0.47,WeatherDisplay:10.37,2014-01-11 19:22:00,
2014-01-11 14:27:00,46.6,46.3,29.21,WSW,248,10.4,10.4,99,0.00,OVC,,0.47,WeatherDisplay:10.37,2014-01-11 19:27:00,
2014-01-11 14:32:00,46.6,46.3,29.21,WSW,248,10.4,10.4,99,0.00,OVC,,0.47,WeatherDisplay:10.37,2014-01-11 19:32:00,
2014-01-11 14:37:00,46.6,46.3,29.21,WSW,248,11.5,11.5,99,0.00,OVC,,0.47,WeatherDisplay:10.37,2014-01-11 19:37:00,
2014-01-11 14:42:00,46.6,46.3,29.21,WSW,248,11.4,11.4,99,0.00,OVC,,0.47,WeatherDisplay:10.37,2014-01-11 19:42:00,
2014-01-11 14:47:00,46.6,46.3,29.21,SW,225,10.9,10.9,99,0.00,OVC,,0.47,WeatherDisplay:10.37,2014-01-11 19:47:00,
2014-01-11 14:52:00,46.6,46.3,29.22,SW,225,10.4,10.4,99,0.00,OVC,,0.47,WeatherDisplay:10.37,2014-01-11 19:52:00,
2014-01-11 14:57:00,46.6,46.3,29.22,SW,225,10.9,10.9,99,0.00,OVC,,0.47,WeatherDisplay:10.37,2014-01-11 19:57:00,
2014-01-11 15:02:00,46.6,46.3,29.22,WSW,248,11.5,11.5,99,0.00,BKN,,0.47,WeatherDisplay:10.37,2014-01-11 20:02:00,
2014-01-11 15:07:00,46.6,46.3,29.22,SW,225,15.0,15.0,99,0.00,BKN,,0.47,WeatherDisplay:10.37,2014-01-11 20:07:00,
2014-01-11 15:09:00,46.6,46.3,29.22,SW,225,12.7,12.7,99,0.00,BKN,,0.47,WeatherDisplay:10.37,2014-01-11 20:09:00,
2014-01-11 15:14:00,46.6,46.3,29.22,WSW,248,21.9,21.9,99,0.00,BKN,,0.47,WeatherDisplay:10.37,2014-01-11 20:14:00,
2014-01-11 15:19:00,46.6,46.3,29.22,SW,225,20.7,20.7,99,0.00,BKN,,0.47,WeatherDisplay:10.37,2014-01-11 20:19:00,
2014-01-11 15:24:00,46.6,46.3,29.22,WSW,248,17.1,17.1,99,0.00,BKN,,0.47,WeatherDisplay:10.37,2014-01-11 20:24:00,
2014-01-11 15:29:00,46.6,46.3,29.22,SW,225,20.7,20.7,99,0.00,BKN,,0.47,WeatherDisplay:10.37,2014-01-11 20:29:00,
2014-01-11 15:34:00,46.6,46.3,29.22,SW,225,17.3,17.3,99,0.00,SCT,,0.47,WeatherDisplay:10.37,2014-01-11 20:34:00,
2014-01-11 15:39:00,46.6,46.3,29.23,WSW,248,18.1,18.1,99,0.00,SCT,,0.47,WeatherDisplay:10.37,2014-01-11 20:39:00,
2014-01-11 15:44:00,46.6,46.3,29.23,SW,225,12.7,12.7,99,0.00,SCT,,0.47,WeatherDisplay:10.37,2014-01-11 20:44:00,
2014-01-11 15:49:00,46.6,46.3,29.23,SSW,202,19.6,19.6,99,0.00,SCT,,0.47,WeatherDisplay:10.37,2014-01-11 20:49:00,
2014-01-11 15:54:00,46.6,46.3,29.23,SW,225,21.9,21.9,99,0.00,SCT,,0.47,WeatherDisplay:10.37,2014-01-11 20:54:00,
2014-01-11 15:59:00,46.6,46.3,29.23,SSW,202,16.1,16.1,99,0.00,SCT,,0.47,WeatherDisplay:10.37,2014-01-11 20:59:00,
2014-01-11 16:04:00,46.6,46.3,29.22,SSW,202,10.4,10.4,99,0.00,CLR,,0.47,WeatherDisplay:10.37,2014-01-11 21:04:00,
2014-01-11 16:09:00,46.6,46.3,29.22,SSW,202,13.8,13.8,99,0.00,CLR,,0.47,WeatherDisplay:10.37,2014-01-11 21:09:00,
2014-01-11 16:14:00,46.6,46.3,29.21,SW,225,12.7,12.7,99,0.00,CLR,,0.47,WeatherDisplay:10.37,2014-01-11 21:14:00,
2014-01-11 16:19:00,46.6,46.3,29.21,West,270,13.8,13.8,99,0.00,CLR,,0.47,WeatherDisplay:10.37,2014-01-11 21:19:00,
2014-01-11 16:24:00,46.6,46.3,29.21,SW,225,12.7,12.7,99,0.00,CLR,,0.47,WeatherDisplay:10.37,2014-01-11 21:24:00,
2014-01-11 16:29:00,46.6,46.3,29.22,West,270,10.4,10.4,99,0.00,CLR,,0.47,WeatherDisplay:10.37,2014-01-11 21:29:00,
2014-01-11 16:34:00,46.6,46.3,29.22,WSW,248,12.4,12.4,99,0.00,CLR,,0.47,WeatherDisplay:10.37,2014-01-11 21:34:00,
2014-01-11 16:35:00,46.6,46.3,29.22,SW,225,15.0,15.0,99,0.00,CLR,,0.47,WeatherDisplay:10.37,2014-01-11 21:35:00,
2014-01-11 16:40:00,46.6,46.3,29.22,SW,225,16.1,16.1,99,0.00,CLR,,0.47,WeatherDisplay:10.37,2014-01-11 21:40:00,
2014-01-11 16:45:00,46.6,46.3,29.22,SSW,202,16.1,16.1,99,0.00,CLR,,0.47,WeatherDisplay:10.37,2014-01-11 21:45:00,
2014-01-11 16:50:00,46.6,46.3,29.21,SW,225,15.0,15.0,99,0.00,CLR,,0.47,WeatherDisplay:10.37,2014-01-11 21:50:00,
2014-01-11 16:55:00,46.6,46.3,29.21,WSW,248,15.0,15.0,99,0.00,CLR,,0.47,WeatherDisplay:10.37,2014-01-11 21:55:00,
2014-01-11 17:00:00,46.6,46.3,29.21,West,270,12.7,12.7,99,0.00,CLR,,0.47,WeatherDisplay:10.37,2014-01-11 22:00:00,
2014-01-11 17:05:00,46.6,46.3,29.21,WSW,248,11.5,11.5,99,0.00,CLR,,0.47,WeatherDisplay:10.37,2014-01-11 22:05:00,
2014-01-11 17:10:00,46.6,46.3,29.21,WSW,248,17.3,17.3,99,0.00,CLR,,0.47,WeatherDisplay:10.37,2014-01-11 22:10:00,
2014-01-11 17:15:00,46.6,46.3,29.22,SW,225,14.0,14.0,99,0.00,CLR,,0.47,WeatherDisplay:10.37,2014-01-11 22:15:00,
2014-01-11 17:20:00,46.6,46.3,29.22,SW,225,14.0,14.0,99,0.00,CLR,,0.47,WeatherDisplay:10.37,2014-01-11 22:20:00,
2014-01-11 17:26:00,46.6,46.3,29.23,SW,225,11.9,11.9,99,0.00,CLR,,0.47,WeatherDisplay:10.37,2014-01-11 22:26:00,
2014-01-11 17:31:00,46.6,46.3,29.23,WSW,248,32.2,32.2,99,0.00,CLR,,0.47,WeatherDisplay:10.37,2014-01-11 22:31:00,
2014-01-11 17:36:00,46.6,46.3,29.23,SW,225,25.8,25.8,99,0.00,CLR,,0.47,WeatherDisplay:10.37,2014-01-11 22:36:00,
2014-01-11 17:41:00,46.6,46.3,29.23,SW,225,24.2,24.2,99,0.00,CLR,,0.47,WeatherDisplay:10.37,2014-01-11 22:41:00,
2014-01-11 17:46:00,46.6,46.3,29.23,WSW,248,19.1,19.1,99,0.00,CLR,,0.47,WeatherDisplay:10.37,2014-01-11 22:46:00,
2014-01-11 17:51:00,46.6,46.3,29.23,WSW,248,28.8,28.8,99,0.00,CLR,,0.47,WeatherDisplay:10.37,2014-01-11 22:51:00,
2014-01-11 17:56:00,46.6,46.3,29.23,SW,225,25.8,25.8,99,0.00,CLR,,0.47,WeatherDisplay:10.37,2014-01-11 22:56:00,
2014-01-11 18:01:00,46.6,46.3,29.24,WSW,248,25.3,25.3,99,0.00,OVC,,0.47,WeatherDisplay:10.37,2014-01-11 23:01:00,
2014-01-11 18:06:00,46.6,46.3,29.24,West,270,22.7,22.7,99,0.00,OVC,,0.47,WeatherDisplay:10.37,2014-01-11 23:06:00,
2014-01-11 18:11:00,46.6,46.3,29.24,SW,225,25.3,25.3,99,0.00,OVC,,0.47,WeatherDisplay:10.37,2014-01-11 23:11:00,
2014-01-11 18:16:00,46.6,46.3,29.26,WSW,248,29.9,29.9,99,0.00,OVC,,0.47,WeatherDisplay:10.37,2014-01-11 23:16:00,
2014-01-11 18:21:00,46.6,46.3,29.26,WSW,248,29.9,29.9,99,0.00,OVC,,0.47,WeatherDisplay:10.37,2014-01-11 23:21:00,
2014-01-11 18:26:00,46.6,46.3,29.26,WSW,248,31.1,31.1,99,0.00,OVC,,0.47,WeatherDisplay:10.37,2014-01-11 23:26:00,
2014-01-11 18:31:00,46.6,46.3,29.26,WSW,248,29.9,29.9,99,0.00,OVC,,0.47,WeatherDisplay:10.37,2014-01-11 23:31:00,
2014-01-11 18:36:00,46.6,46.3,29.27,WSW,248,30.9,30.9,99,0.00,OVC,,0.47,WeatherDisplay:10.37,2014-01-11 23:36:00,
2014-01-11 18:41:00,46.6,46.3,29.27,WSW,248,27.6,27.6,99,0.00,OVC,,0.47,WeatherDisplay:10.37,2014-01-11 23:41:00,
2014-01-11 18:46:00,46.6,46.3,29.27,WSW,248,20.7,20.7,99,0.00,OVC,,0.47,WeatherDisplay:10.37,2014-01-11 23:46:00,
2014-01-11 18:51:00,46.6,46.3,29.28,West,270,31.1,31.1,99,0.00,OVC,,0.47,WeatherDisplay:10.37,2014-01-11 23:51:00,
2014-01-11 18:56:00,46.6,46.3,29.28,West,270,23.0,23.0,99,0.00,OVC,,0.47,WeatherDisplay:10.37,2014-01-11 23:56:00,
2014-01-11 19:01:00,46.6,46.3,29.29,WSW,248,25.3,25.3,99,0.00,OVC,,0.47,WeatherDisplay:10.37,2014-01-12 00:01:00,
2014-01-11 19:06:00,46.6,46.3,29.29,WSW,248,27.6,27.6,99,0.00,OVC,,0.47,WeatherDisplay:10.37,2014-01-12 00:06:00,
2014-01-11 19:11:00,46.6,46.3,29.29,SW,225,19.1,19.1,99,0.00,OVC,,0.47,WeatherDisplay:10.37,2014-01-12 00:11:00,
2014-01-11 19:16:00,46.6,46.3,29.29,WSW,248,21.9,21.9,99,0.00,OVC,,0.47,WeatherDisplay:10.37,2014-01-12 00:16:00,
2014-01-11 19:21:00,46.6,46.3,29.29,WSW,248,24.2,24.2,99,0.00,OVC,,0.47,WeatherDisplay:10.37,2014-01-12 00:21:00,
2014-01-11 19:26:00,46.6,46.3,29.30,SW,225,31.5,31.5,99,0.00,OVC,,0.47,WeatherDisplay:10.37,2014-01-12 00:26:00,
2014-01-11 19:31:00,46.6,46.3,29.30,SW,225,29.9,29.9,99,0.00,BKN,,0.47,WeatherDisplay:10.37,2014-01-12 00:31:00,
2014-01-11 19:36:00,46.6,46.3,29.30,WSW,248,39.2,39.2,99,0.00,BKN,,0.47,WeatherDisplay:10.37,2014-01-12 00:36:00,
2014-01-11 19:41:00,46.6,46.3,29.29,SW,225,29.9,29.9,99,0.00,BKN,,0.47,WeatherDisplay:10.37,2014-01-12 00:41:00,
2014-01-11 19:46:00,46.6,46.3,29.29,SW,225,33.4,33.4,99,0.00,BKN,,0.47,WeatherDisplay:10.37,2014-01-12 00:46:00,
2014-01-11 19:51:00,46.6,46.3,29.32,WSW,248,29.9,29.9,99,0.00,BKN,,0.47,WeatherDisplay:10.37,2014-01-12 00:51:00,
2014-01-11 19:56:00,46.6,46.3,29.32,West,270,28.8,28.8,99,0.00,BKN,,0.47,WeatherDisplay:10.37,2014-01-12 00:56:00,
2014-01-11 20:01:00,46.6,46.3,29.33,SW,225,23.0,23.0,99,0.00,OVC,,0.47,WeatherDisplay:10.37,2014-01-12 01:01:00,
2014-01-11 20:06:00,46.6,46.3,29.33,West,270,29.9,29.9,99,0.00,OVC,,0.47,WeatherDisplay:10.37,2014-01-12 01:06:00,
2014-01-11 20:11:00,46.6,46.3,29.33,SW,225,25.3,25.3,99,0.00,OVC,,0.47,WeatherDisplay:10.37,2014-01-12 01:11:00,
2014-01-11 20:16:00,46.6,46.3,29.34,SW,225,25.3,25.3,99,0.00,OVC,,0.47,WeatherDisplay:10.37,2014-01-12 01:16:00,
2014-01-11 20:21:00,46.6,46.3,29.34,SW,225,19.6,19.6,99,0.00,OVC,,0.47,WeatherDisplay:10.37,2014-01-12 01:21:00,
2014-01-11 20:26:00,46.6,46.3,29.36,WSW,248,29.9,29.9,99,0.00,OVC,,0.47,WeatherDisplay:10.37,2014-01-12 01:26:00,
2014-01-11 20:31:00,46.6,46.3,29.36,WSW,248,27.6,27.6,99,0.00,OVC,,0.47,WeatherDisplay:10.37,2014-01-12 01:31:00,
2014-01-11 20:36:00,46.6,46.3,29.36,SW,225,19.6,19.6,99,0.00,OVC,,0.47,WeatherDisplay:10.37,2014-01-12 01:36:00,
2014-01-11 20:41:00,46.6,46.3,29.37,WSW,248,23.8,23.8,99,0.00,OVC,,0.47,WeatherDisplay:10.37,2014-01-12 01:41:00,
2014-01-11 20:46:00,46.6,46.3,29.37,WSW,248,16.1,16.1,99,0.00,OVC,,0.47,WeatherDisplay:10.37,2014-01-12 01:46:00,
2014-01-11 20:51:00,46.6,46.3,29.38,WSW,248,21.9,21.9,99,0.00,OVC,,0.47,WeatherDisplay:10.37,2014-01-12 01:51:00,
2014-01-11 20:56:00,46.6,46.3,29.38,SW,225,23.0,23.0,99,0.00,OVC,,0.47,WeatherDisplay:10.37,2014-01-12 01:56:00,
2014-01-11 21:01:00,46.6,46.3,29.39,SW,225,21.9,21.9,99,0.00,OVC,,0.47,WeatherDisplay:10.37,2014-01-12 02:01:00,
2014-01-11 21:06:00,46.6,46.3,29.39,WSW,248,20.7,20.7,99,0.00,OVC,,0.47,WeatherDisplay:10.37,2014-01-12 02:06:00,
2014-01-11 21:11:00,46.6,46.3,29.39,WSW,248,19.6,19.6,99,0.00,OVC,,0.47,WeatherDisplay:10.37,2014-01-12 02:11:00,
2014-01-11 21:16:00,46.6,46.3,29.40,SW,225,20.7,20.7,99,0.00,OVC,,0.47,WeatherDisplay:10.37,2014-01-12 02:16:00,
2014-01-11 21:21:00,46.6,46.3,29.40,SW,225,22.7,22.7,99,0.00,OVC,,0.47,WeatherDisplay:10.37,2014-01-12 02:21:00,
2014-01-11 21:26:00,46.6,46.3,29.41,WSW,248,14.0,14.0,99,0.00,OVC,,0.47,WeatherDisplay:10.37,2014-01-12 02:26:00,
2014-01-11 21:31:00,46.6,46.3,29.41,SW,225,21.9,21.9,99,0.00,OVC,,0.47,WeatherDisplay:10.37,2014-01-12 02:31:00,
2014-01-11 21:36:00,46.6,46.3,29.41,SSW,202,18.4,18.4,99,0.00,OVC,,0.47,WeatherDisplay:10.37,2014-01-12 02:36:00,
2014-01-11 21:41:00,46.6,46.3,29.41,WSW,248,17.3,17.3,99,0.00,OVC,,0.47,WeatherDisplay:10.37,2014-01-12 02:41:00,
2014-01-11 21:46:00,46.6,46.3,29.41,SW,225,17.6,17.6,99,0.00,OVC,,0.47,WeatherDisplay:10.37,2014-01-12 02:46:00,
2014-01-11 21:51:00,46.6,46.3,29.42,SW,225,18.4,18.4,99,0.00,OVC,,0.47,WeatherDisplay:10.37,2014-01-12 02:51:00,
2014-01-11 21:56:00,46.6,46.3,29.42,SW,225,17.3,17.3,99,0.00,OVC,,0.47,WeatherDisplay:10.37,2014-01-12 02:56:00,
2014-01-11 22:01:00,46.6,46.3,29.43,SW,225,11.5,11.5,99,0.00,OVC,,0.47,WeatherDisplay:10.37,2014-01-12 03:01:00,
2014-01-11 22:06:00,46.6,46.3,29.43,SW,225,13.8,13.8,99,0.00,OVC,,0.47,WeatherDisplay:10.37,2014-01-12 03:06:00,
2014-01-11 22:11:00,46.6,46.3,29.43,WSW,248,15.0,15.0,99,0.00,OVC,,0.47,WeatherDisplay:10.37,2014-01-12 03:11:00,
2014-01-11 22:16:00,46.6,46.3,29.44,WSW,248,12.4,12.4,99,0.00,OVC,,0.47,WeatherDisplay:10.37,2014-01-12 03:16:00,
2014-01-11 22:21:00,46.6,46.3,29.44,WSW,248,17.3,17.3,99,0.00,OVC,,0.47,WeatherDisplay:10.37,2014-01-12 03:21:00,
2014-01-11 22:26:00,46.6,46.3,29.45,WSW,248,13.8,13.8,99,0.00,OVC,,0.47,WeatherDisplay:10.37,2014-01-12 03:26:00,
2014-01-11 22:31:00,46.6,46.3,29.45,SW,225,11.5,11.5,99,0.00,OVC,,0.47,WeatherDisplay:10.37,2014-01-12 03:31:00,
2014-01-11 22:36:00,46.6,46.3,29.45,SW,225,14.0,14.0,99,0.00,OVC,,0.47,WeatherDisplay:10.37,2014-01-12 03:36:00,
2014-01-11 22:41:00,46.6,46.3,29.46,SW,225,17.3,17.3,99,0.00,OVC,,0.47,WeatherDisplay:10.37,2014-01-12 03:41:00,
2014-01-11 22:46:00,46.6,46.3,29.46,SSW,202,16.1,16.1,99,0.00,OVC,,0.47,WeatherDisplay:10.37,2014-01-12 03:46:00,
2014-01-11 22:51:00,46.6,46.3,29.46,SW,225,23.0,23.0,99,0.00,OVC,,0.47,WeatherDisplay:10.37,2014-01-12 03:51:00,
2014-01-11 22:56:00,46.6,46.3,29.46,SW,225,23.0,23.0,99,0.00,OVC,,0.47,WeatherDisplay:10.37,2014-01-12 03:56:00,
2014-01-11 23:01:00,46.6,46.3,29.46,SW,225,20.7,20.7,99,0.00,OVC,,0.47,WeatherDisplay:10.37,2014-01-12 04:01:00,
2014-01-11 23:06:00,46.6,46.3,29.46,SW,225,20.7,20.7,99,0.00,OVC,,0.47,WeatherDisplay:10.37,2014-01-12 04:06:00,
2014-01-11 23:11:00,46.6,46.3,29.46,SW,225,20.7,20.7,99,0.00,OVC,,0.47,WeatherDisplay:10.37,2014-01-12 04:11:00,
2014-01-11 23:16:00,46.6,46.3,29.46,SW,225,20.7,20.7,99,0.00,OVC,,0.47,WeatherDisplay:10.37,2014-01-12 04:16:00,
2014-01-11 23:21:00,46.6,46.3,29.47,WSW,248,20.7,20.7,99,0.00,OVC,,0.47,WeatherDisplay:10.37,2014-01-12 04:21:00,
2014-01-11 23:26:00,46.6,46.3,29.47,WSW,248,20.7,20.7,99,0.00,OVC,,0.47,WeatherDisplay:10.37,2014-01-12 04:26:00,
2014-01-11 23:31:00,46.6,46.3,29.47,SW,225,20.7,20.7,99,0.00,OVC,,0.47,WeatherDisplay:10.37,2014-01-12 04:31:00,
2014-01-11 23:36:00,46.6,46.3,29.47,SW,225,23.2,23.2,99,0.00,OVC,,0.47,WeatherDisplay:10.37,2014-01-12 04:36:00,
2014-01-11 23:41:00,46.6,46.3,29.47,WSW,248,19.6,19.6,99,0.00,OVC,,0.47,WeatherDisplay:10.37,2014-01-12 04:41:00,
2014-01-11 23:46:00,46.6,46.3,29.47,WSW,248,26.5,26.5,99,0.00,OVC,,0.47,WeatherDisplay:10.37,2014-01-12 04:46:00,
2014-01-11 23:51:00,46.6,46.3,29.48,West,270,20.7,20.7,99,0.00,OVC,,0.47,WeatherDisplay:10.37,2014-01-12 04:51:00,
2014-01-11 23:56:00,46.6,46.3,29.48,WSW,248,17.3,17.3,99,0.00,OVC,,0.47,WeatherDisplay:10.37,2014-01-12 04:56:00,